Time,TemperatureF,DewpointF,PressureIn,WindDirection,WindDirectionDegrees,WindSpeedMPH,WindSpeedGustMPH,Humidity,HourlyPrecipIn,Conditions,Clouds,dailyrainin,SoftwareType,DateUTC
2013-06-10 00:00:00,76.0,71.2,29.97,East,85,0.0,0.0,85,0.00,,,0.07,Wunderground v.1.15,2013-06-10 04:00:00,
2013-06-10 00:01:00,76.0,71.2,29.97,East,86,0.0,0.0,85,0.00,,,0.00,Wunderground v.1.15,2013-06-10 04:01:00,
2013-06-10 00:02:00,76.0,71.2,29.97,East,86,0.0,0.0,85,0.00,,,0.00,Wunderground v.1.15,2013-06-10 04:02:00,
2013-06-10 00:07:00,76.0,71.2,29.97,East,86,0.0,0.0,85,0.00,,,0.00,Wunderground v.1.15,2013-06-10 04:07:00,
2013-06-10 00:12:00,76.0,71.2,29.97,East,85,0.0,0.0,85,0.00,,,0.00,Wunderground v.1.15,2013-06-10 04:12:00,
2013-06-10 00:17:00,76.0,71.2,29.98,East,85,0.0,0.0,85,0.00,,,0.00,Wunderground v.1.15,2013-06-10 04:17:00,
2013-06-10 00:22:00,76.0,71.2,29.98,East,86,0.0,1.0,85,0.00,,,0.00,Wunderground v.1.15,2013-06-10 04:22:00,
2013-06-10 00:27:00,76.0,71.2,29.98,East,85,0.0,1.0,85,0.00,,,0.00,Wunderground v.1.15,2013-06-10 04:27:00,
2013-06-10 00:32:00,76.0,71.2,29.98,East,86,0.0,0.0,85,0.00,,,0.00,Wunderground v.1.15,2013-06-10 04:32:00,
2013-06-10 00:37:00,75.8,71.0,29.98,East,85,0.0,0.0,85,0.00,,,0.00,Wunderground v.1.15,2013-06-10 04:37:00,
2013-06-10 00:42:00,75.8,71.0,29.98,East,85,0.0,0.0,85,0.00,,,0.00,Wunderground v.1.15,2013-06-10 04:42:00,
2013-06-10 00:47:00,75.8,71.0,29.98,East,86,0.0,0.0,85,0.00,,,0.00,Wunderground v.1.15,2013-06-10 04:47:00,
2013-06-10 00:52:00,75.8,71.3,29.98,East,86,0.0,1.0,86,0.00,,,0.00,Wunderground v.1.15,2013-06-10 04:52:00,
2013-06-10 00:57:00,75.8,71.3,29.98,East,85,0.0,1.0,86,0.00,,,0.00,Wunderground v.1.15,2013-06-10 04:57:00,
2013-06-10 01:02:00,75.8,71.3,29.98,East,86,0.0,0.0,86,0.00,,,0.00,Wunderground v.1.15,2013-06-10 05:02:00,
2013-06-10 01:07:00,75.8,71.3,29.98,East,86,0.0,0.0,86,0.00,,,0.00,Wunderground v.1.15,2013-06-10 05:07:00,
2013-06-10 01:12:00,75.8,71.3,29.98,East,86,0.0,0.0,86,0.00,,,0.00,Wunderground v.1.15,2013-06-10 05:12:00,
2013-06-10 01:17:00,75.8,71.3,29.97,East,85,0.0,0.0,86,0.00,,,0.00,Wunderground v.1.15,2013-06-10 05:17:00,
2013-06-10 01:22:00,75.8,71.3,29.97,East,85,0.0,0.0,86,0.00,,,0.00,Wunderground v.1.15,2013-06-10 05:22:00,
2013-06-10 01:27:00,75.8,71.3,29.97,East,85,2.0,2.0,86,0.00,,,0.00,Wunderground v.1.15,2013-06-10 05:27:00,
2013-06-10 01:32:00,75.6,71.1,29.96,East,86,0.0,0.0,86,0.00,,,0.00,Wunderground v.1.15,2013-06-10 05:32:00,
2013-06-10 01:37:00,75.6,71.1,29.96,East,85,0.0,0.0,86,0.00,,,0.00,Wunderground v.1.15,2013-06-10 05:37:00,
2013-06-10 01:42:00,75.6,71.1,29.96,East,85,0.0,0.0,86,0.00,,,0.00,Wunderground v.1.15,2013-06-10 05:42:00,
2013-06-10 01:47:00,75.6,71.1,29.96,East,85,0.0,0.0,86,0.00,,,0.00,Wunderground v.1.15,2013-06-10 05:47:00,
2013-06-10 01:52:00,75.6,71.1,29.96,East,86,0.0,0.0,86,0.00,,,0.00,Wunderground v.1.15,2013-06-10 05:52:00,
2013-06-10 01:57:00,75.4,71.3,29.96,East,86,0.0,0.0,87,0.00,,,0.00,Wunderground v.1.15,2013-06-10 05:57:00,
2013-06-10 02:02:00,75.4,71.3,29.95,East,86,0.0,0.0,87,0.00,,,0.00,Wunderground v.1.15,2013-06-10 06:02:00,
2013-06-10 02:07:00,75.4,71.3,29.95,East,86,0.0,0.0,87,0.00,,,0.00,Wunderground v.1.15,2013-06-10 06:07:00,
2013-06-10 02:12:00,75.3,71.2,29.95,East,85,0.0,0.0,87,0.00,,,0.00,Wunderground v.1.15,2013-06-10 06:12:00,
2013-06-10 02:17:00,75.3,71.2,29.95,East,86,0.0,0.0,87,0.00,,,0.00,Wunderground v.1.15,2013-06-10 06:17:00,
2013-06-10 02:22:00,75.3,71.2,29.95,East,85,0.0,0.0,87,0.00,,,0.00,Wunderground v.1.15,2013-06-10 06:22:00,
2013-06-10 02:27:00,75.3,71.2,29.95,East,86,0.0,0.0,87,0.00,,,0.00,Wunderground v.1.15,2013-06-10 06:27:00,
2013-06-10 02:32:00,75.3,71.2,29.95,East,85,0.0,0.0,87,0.00,,,0.00,Wunderground v.1.15,2013-06-10 06:32:00,
2013-06-10 02:37:00,75.3,71.2,29.95,East,85,0.0,0.0,87,0.00,,,0.00,Wunderground v.1.15,2013-06-10 06:37:00,
2013-06-10 02:42:00,75.1,71.0,29.95,East,86,0.0,0.0,87,0.00,,,0.00,Wunderground v.1.15,2013-06-10 06:42:00,
2013-06-10 02:47:00,75.1,71.0,29.95,East,86,0.0,0.0,87,0.00,,,0.00,Wunderground v.1.15,2013-06-10 06:47:00,
2013-06-10 02:52:00,75.1,71.0,29.95,East,86,0.0,0.0,87,0.00,,,0.00,Wunderground v.1.15,2013-06-10 06:52:00,
2013-06-10 02:57:00,75.1,71.0,29.95,East,86,0.0,0.0,87,0.00,,,0.00,Wunderground v.1.15,2013-06-10 06:57:00,
2013-06-10 03:02:00,75.1,71.3,29.95,East,86,0.0,0.0,88,0.00,,,0.00,Wunderground v.1.15,2013-06-10 07:02:00,
2013-06-10 03:07:00,75.1,71.3,29.95,East,86,0.0,0.0,88,0.00,,,0.00,Wunderground v.1.15,2013-06-10 07:07:00,
2013-06-10 03:12:00,75.1,71.3,29.95,East,86,0.0,0.0,88,0.00,,,0.00,Wunderground v.1.15,2013-06-10 07:12:00,
2013-06-10 03:17:00,75.1,71.3,29.94,East,85,0.0,0.0,88,0.00,,,0.00,Wunderground v.1.15,2013-06-10 07:17:00,
2013-06-10 03:22:00,75.1,71.3,29.94,East,86,0.0,0.0,88,0.00,,,0.00,Wunderground v.1.15,2013-06-10 07:22:00,
2013-06-10 03:27:00,75.1,71.3,29.94,East,85,0.0,0.0,88,0.00,,,0.00,Wunderground v.1.15,2013-06-10 07:27:00,
2013-06-10 03:32:00,75.1,71.3,29.93,East,86,0.0,0.0,88,0.00,,,0.00,Wunderground v.1.15,2013-06-10 07:32:00,
2013-06-10 03:38:00,75.1,71.3,29.93,East,86,0.0,0.0,88,0.00,,,0.00,Wunderground v.1.15,2013-06-10 07:38:00,
2013-06-10 03:43:00,75.1,71.3,29.93,East,85,0.0,0.0,88,0.00,,,0.00,Wunderground v.1.15,2013-06-10 07:43:00,
2013-06-10 03:48:00,75.1,71.3,29.93,East,86,0.0,0.0,88,0.00,,,0.00,Wunderground v.1.15,2013-06-10 07:48:00,
2013-06-10 03:53:00,75.1,71.3,29.93,East,86,0.0,0.0,88,0.00,,,0.00,Wunderground v.1.15,2013-06-10 07:53:00,
2013-06-10 03:58:00,75.1,71.3,29.93,East,85,0.0,0.0,88,0.00,,,0.00,Wunderground v.1.15,2013-06-10 07:58:00,
2013-06-10 04:03:00,75.1,71.3,29.94,East,86,0.0,0.0,88,0.00,,,0.00,Wunderground v.1.15,2013-06-10 08:03:00,
2013-06-10 04:08:00,75.1,71.3,29.94,East,85,0.0,0.0,88,0.00,,,0.00,Wunderground v.1.15,2013-06-10 08:08:00,
2013-06-10 04:13:00,75.1,71.3,29.94,East,85,0.0,0.0,88,0.00,,,0.00,Wunderground v.1.15,2013-06-10 08:13:00,
2013-06-10 04:18:00,75.1,71.3,29.94,East,86,0.0,0.0,88,0.00,,,0.00,Wunderground v.1.15,2013-06-10 08:18:00,
2013-06-10 04:23:00,75.1,71.3,29.94,East,86,0.0,0.0,88,0.00,,,0.00,Wunderground v.1.15,2013-06-10 08:23:00,
2013-06-10 04:28:00,75.1,71.3,29.94,East,99,0.0,0.0,88,0.00,,,0.00,Wunderground v.1.15,2013-06-10 08:28:00,
2013-06-10 04:33:00,75.1,71.3,29.93,East,99,0.0,0.0,88,0.00,,,0.00,Wunderground v.1.15,2013-06-10 08:33:00,
2013-06-10 04:38:00,75.1,71.3,29.93,SE,134,0.0,0.0,88,0.00,,,0.00,Wunderground v.1.15,2013-06-10 08:38:00,
2013-06-10 04:43:00,75.3,71.8,29.93,SE,141,0.0,1.0,89,0.00,,,0.00,Wunderground v.1.15,2013-06-10 08:43:00,
2013-06-10 04:48:00,75.4,71.9,29.93,South,178,0.0,3.0,89,0.00,,,0.00,Wunderground v.1.15,2013-06-10 08:48:00,
2013-06-10 04:53:00,75.6,72.1,29.93,SE,128,0.0,7.0,89,0.00,,,0.00,Wunderground v.1.15,2013-06-10 08:53:00,
2013-06-10 04:58:00,75.8,72.3,29.93,SE,130,1.0,7.0,89,0.00,,,0.00,Wunderground v.1.15,2013-06-10 08:58:00,
2013-06-10 05:03:00,76.0,72.5,29.94,SE,145,0.0,3.0,89,0.00,,,0.00,Wunderground v.1.15,2013-06-10 09:03:00,
2013-06-10 05:08:00,76.0,72.5,29.94,SSE,161,0.0,3.0,89,0.00,,,0.00,Wunderground v.1.15,2013-06-10 09:08:00,
2013-06-10 05:13:00,76.1,72.3,29.94,SSE,162,0.0,1.0,88,0.00,,,0.00,Wunderground v.1.15,2013-06-10 09:13:00,
2013-06-10 05:18:00,76.1,72.3,29.94,ESE,114,0.0,1.0,88,0.00,,,0.00,Wunderground v.1.15,2013-06-10 09:18:00,
2013-06-10 05:23:00,76.1,72.3,29.94,ESE,114,0.0,0.0,88,0.00,,,0.00,Wunderground v.1.15,2013-06-10 09:23:00,
2013-06-10 05:28:00,76.1,72.3,29.94,ESE,113,0.0,0.0,88,0.00,,,0.00,Wunderground v.1.15,2013-06-10 09:28:00,
2013-06-10 05:33:00,76.1,72.3,29.93,ESE,113,0.0,0.0,88,0.00,,,0.00,Wunderground v.1.15,2013-06-10 09:33:00,
2013-06-10 05:38:00,76.1,72.6,29.93,South,188,0.0,0.0,89,0.00,,,0.00,Wunderground v.1.15,2013-06-10 09:38:00,
2013-06-10 05:43:00,76.1,72.3,29.93,SSE,154,0.0,0.0,88,0.00,,,0.00,Wunderground v.1.15,2013-06-10 09:43:00,
2013-06-10 05:48:00,76.1,72.3,29.93,SE,136,0.0,1.0,88,0.00,,,0.00,Wunderground v.1.15,2013-06-10 09:48:00,
2013-06-10 05:53:00,76.1,72.6,29.93,SSE,150,0.0,0.0,89,0.00,,,0.00,Wunderground v.1.15,2013-06-10 09:53:00,
2013-06-10 05:58:00,76.3,72.8,29.93,SSE,150,0.0,0.0,89,0.00,,,0.00,Wunderground v.1.15,2013-06-10 09:58:00,
2013-06-10 06:03:00,76.3,72.8,29.94,SSE,150,0.0,0.0,89,0.00,,,0.00,Wunderground v.1.15,2013-06-10 10:03:00,
2013-06-10 06:08:00,76.3,72.8,29.94,SSE,150,0.0,2.0,89,0.00,,,0.00,Wunderground v.1.15,2013-06-10 10:08:00,
2013-06-10 06:13:00,76.3,72.8,29.94,East,93,0.0,0.0,89,0.00,,,0.00,Wunderground v.1.15,2013-06-10 10:13:00,
2013-06-10 06:18:00,76.3,72.8,29.94,East,95,0.0,0.0,89,0.00,,,0.00,Wunderground v.1.15,2013-06-10 10:18:00,
2013-06-10 06:23:00,76.3,72.8,29.94,ESE,113,0.0,0.0,89,0.00,,,0.00,Wunderground v.1.15,2013-06-10 10:23:00,
2013-06-10 06:28:00,76.3,72.8,29.94,ESE,113,0.0,0.0,89,0.00,,,0.00,Wunderground v.1.15,2013-06-10 10:28:00,
2013-06-10 06:33:00,76.3,72.8,29.93,ESE,113,0.0,0.0,89,0.00,,,0.00,Wunderground v.1.15,2013-06-10 10:33:00,
2013-06-10 06:38:00,76.3,72.8,29.93,ESE,113,0.0,0.0,89,0.00,,,0.00,Wunderground v.1.15,2013-06-10 10:38:00,
2013-06-10 06:43:00,76.3,72.8,29.93,SE,145,2.0,2.0,89,0.00,,,0.00,Wunderground v.1.15,2013-06-10 10:43:00,
2013-06-10 06:48:00,76.3,72.8,29.94,SE,134,0.0,2.0,89,0.00,,,0.00,Wunderground v.1.15,2013-06-10 10:48:00,
2013-06-10 06:53:00,76.3,72.8,29.94,SE,141,0.0,3.0,89,0.00,,,0.00,Wunderground v.1.15,2013-06-10 10:53:00,
2013-06-10 06:58:00,76.3,72.8,29.94,SE,140,0.0,3.0,89,0.00,,,0.00,Wunderground v.1.15,2013-06-10 10:58:00,
2013-06-10 07:03:00,76.5,73.0,29.94,SE,140,0.0,1.0,89,0.00,,,0.00,Wunderground v.1.15,2013-06-10 11:03:00,
2013-06-10 07:08:00,76.5,73.0,29.94,SE,140,0.0,1.0,89,0.00,,,0.00,Wunderground v.1.15,2013-06-10 11:08:00,
2013-06-10 07:13:00,76.5,73.0,29.94,SE,141,0.0,3.0,89,0.00,,,0.00,Wunderground v.1.15,2013-06-10 11:13:00,
2013-06-10 07:18:00,76.7,73.2,29.95,SE,140,0.0,3.0,89,0.00,,,0.00,Wunderground v.1.15,2013-06-10 11:18:00,
2013-06-10 07:23:00,76.7,73.2,29.95,SE,143,0.0,3.0,89,0.00,,,0.00,Wunderground v.1.15,2013-06-10 11:23:00,
2013-06-10 07:28:00,76.8,73.3,29.95,SE,143,0.0,3.0,89,0.00,,,0.00,Wunderground v.1.15,2013-06-10 11:28:00,
2013-06-10 07:33:00,77.0,73.5,29.95,South,174,0.0,5.0,89,0.00,,,0.00,Wunderground v.1.15,2013-06-10 11:33:00,
2013-06-10 07:38:00,77.2,73.7,29.95,SSE,150,0.0,5.0,89,0.00,,,0.00,Wunderground v.1.15,2013-06-10 11:38:00,
2013-06-10 07:43:00,77.4,73.9,29.95,SE,137,0.0,0.0,89,0.00,,,0.00,Wunderground v.1.15,2013-06-10 11:43:00,
2013-06-10 07:48:00,77.6,74.1,29.95,ESE,113,0.0,1.0,89,0.00,,,0.00,Wunderground v.1.15,2013-06-10 11:48:00,
2013-06-10 07:53:00,77.9,74.4,29.95,SSE,167,0.0,1.0,89,0.00,,,0.00,Wunderground v.1.15,2013-06-10 11:53:00,
2013-06-10 07:58:00,78.1,74.6,29.95,SSE,161,5.0,5.0,89,0.00,,,0.00,Wunderground v.1.15,2013-06-10 11:58:00,
2013-06-10 08:03:00,78.5,74.6,29.96,SSE,154,0.0,6.0,88,0.00,,,0.00,Wunderground v.1.15,2013-06-10 12:03:00,
2013-06-10 08:08:00,78.6,74.7,29.96,East,83,0.0,6.0,88,0.00,,,0.00,Wunderground v.1.15,2013-06-10 12:08:00,
2013-06-10 08:13:00,79.0,75.1,29.96,East,86,0.0,3.0,88,0.00,,,0.00,Wunderground v.1.15,2013-06-10 12:13:00,
2013-06-10 08:18:00,79.2,75.3,29.96,ESE,110,5.0,6.0,88,0.00,,,0.00,Wunderground v.1.15,2013-06-10 12:18:00,
2013-06-10 08:23:00,79.6,75.7,29.96,ESE,112,0.0,5.0,88,0.00,,,0.00,Wunderground v.1.15,2013-06-10 12:23:00,
2013-06-10 08:28:00,79.9,75.7,29.96,SSE,167,3.0,6.0,87,0.00,,,0.00,Wunderground v.1.15,2013-06-10 12:28:00,
2013-06-10 08:33:00,80.1,75.9,29.96,ESE,119,0.0,7.0,87,0.00,,,0.00,Wunderground v.1.15,2013-06-10 12:33:00,
2013-06-10 08:38:00,80.3,75.7,29.96,ESE,120,2.0,7.0,86,0.00,,,0.00,Wunderground v.1.15,2013-06-10 12:38:00,
2013-06-10 08:43:00,80.7,76.1,29.96,ESE,120,1.0,8.0,86,0.00,,,0.00,Wunderground v.1.15,2013-06-10 12:43:00,
2013-06-10 08:48:00,80.7,76.1,29.97,ESE,104,2.0,9.0,86,0.00,,,0.00,Wunderground v.1.15,2013-06-10 12:48:00,
2013-06-10 08:53:00,80.9,76.0,29.97,SSE,154,0.0,9.0,85,0.00,,,0.00,Wunderground v.1.15,2013-06-10 12:53:00,
2013-06-10 08:58:00,81.1,76.2,29.97,SSE,157,3.0,9.0,85,0.00,,,0.00,Wunderground v.1.15,2013-06-10 12:58:00,
2013-06-10 09:04:00,80.9,75.6,29.97,SSE,161,6.0,11.0,84,0.00,,,0.00,Wunderground v.1.15,2013-06-10 13:04:00,
2013-06-10 09:08:00,80.9,75.6,29.97,SE,127,3.0,11.0,84,0.00,,,0.00,Wunderground v.1.15,2013-06-10 13:08:00,
2013-06-10 09:14:00,80.9,75.6,29.97,SSE,158,6.0,7.0,84,0.00,,,0.00,Wunderground v.1.15,2013-06-10 13:14:00,
2013-06-10 09:19:00,80.9,75.6,29.97,SSE,167,3.0,7.0,84,0.00,,,0.00,Wunderground v.1.15,2013-06-10 13:19:00,
2013-06-10 09:24:00,80.9,75.6,29.97,SE,131,2.0,8.0,84,0.00,,,0.00,Wunderground v.1.15,2013-06-10 13:24:00,
2013-06-10 09:29:00,80.7,75.4,29.97,SE,144,5.0,8.0,84,0.00,,,0.00,Wunderground v.1.15,2013-06-10 13:29:00,
2013-06-10 09:34:00,80.7,75.4,29.98,SSE,150,1.0,7.0,84,0.00,,,0.00,Wunderground v.1.15,2013-06-10 13:34:00,
2013-06-10 09:39:00,80.9,75.6,29.98,South,176,5.0,8.0,84,0.00,,,0.00,Wunderground v.1.15,2013-06-10 13:39:00,
2013-06-10 09:44:00,81.1,75.4,29.98,SE,141,1.0,7.0,83,0.00,,,0.00,Wunderground v.1.15,2013-06-10 13:44:00,
2013-06-10 09:49:00,81.2,75.5,29.98,SE,143,0.0,7.0,83,0.00,,,0.00,Wunderground v.1.15,2013-06-10 13:49:00,
2013-06-10 09:54:00,81.8,76.1,29.98,East,79,2.0,7.0,83,0.00,,,0.00,Wunderground v.1.15,2013-06-10 13:54:00,
2013-06-10 09:59:00,82.4,76.7,29.98,ESE,120,4.0,10.0,83,0.00,,,0.00,Wunderground v.1.15,2013-06-10 13:59:00,
2013-06-10 10:04:00,82.8,76.7,29.98,East,86,1.0,8.0,82,0.00,,,0.00,Wunderground v.1.15,2013-06-10 14:04:00,
2013-06-10 10:09:00,83.0,76.6,29.98,SE,133,2.0,8.0,81,0.00,,,0.00,Wunderground v.1.15,2013-06-10 14:09:00,
2013-06-10 10:14:00,83.4,77.0,29.98,ESE,117,6.0,8.0,81,0.00,,,0.00,Wunderground v.1.15,2013-06-10 14:14:00,
2013-06-10 10:19:00,84.0,77.2,29.98,ESE,113,0.0,8.0,80,0.00,,,0.00,Wunderground v.1.15,2013-06-10 14:19:00,
2013-06-10 10:24:00,84.3,77.5,29.98,SE,131,2.0,7.0,80,0.00,,,0.00,Wunderground v.1.15,2013-06-10 14:24:00,
2013-06-10 10:29:00,84.5,77.3,29.98,SSE,161,0.0,7.0,79,0.00,,,0.00,Wunderground v.1.15,2013-06-10 14:29:00,
2013-06-10 10:34:00,84.7,77.5,29.97,South,178,0.0,5.0,79,0.00,,,0.00,Wunderground v.1.15,2013-06-10 14:34:00,
2013-06-10 10:39:00,84.7,77.5,29.97,SE,127,5.0,6.0,79,0.00,,,0.00,Wunderground v.1.15,2013-06-10 14:39:00,
2013-06-10 10:44:00,84.9,77.3,29.97,ESE,114,1.0,9.0,78,0.00,,,0.00,Wunderground v.1.15,2013-06-10 14:44:00,
2013-06-10 10:49:00,84.9,76.9,29.97,ESE,102,0.0,9.0,77,0.00,,,0.00,Wunderground v.1.15,2013-06-10 14:49:00,
2013-06-10 10:54:00,85.1,77.1,29.97,SSE,148,0.0,8.0,77,0.00,,,0.00,Wunderground v.1.15,2013-06-10 14:54:00,
2013-06-10 10:59:00,85.5,77.1,29.97,SE,128,0.0,8.0,76,0.00,,,0.00,Wunderground v.1.15,2013-06-10 14:59:00,
2013-06-10 11:04:00,85.7,77.3,29.97,East,92,3.0,8.0,76,0.00,,,0.00,Wunderground v.1.15,2013-06-10 15:04:00,
2013-06-10 11:09:00,85.9,77.5,29.97,SSW,210,6.0,8.0,76,0.00,,,0.00,Wunderground v.1.15,2013-06-10 15:09:00,
2013-06-10 11:14:00,86.3,77.4,29.97,ESE,114,1.0,7.0,75,0.00,,,0.00,Wunderground v.1.15,2013-06-10 15:14:00,
2013-06-10 11:19:00,86.3,77.0,29.97,ENE,58,0.0,7.0,74,0.00,,,0.00,Wunderground v.1.15,2013-06-10 15:19:00,
2013-06-10 11:24:00,86.5,77.2,29.97,SE,141,5.0,9.0,74,0.00,,,0.00,Wunderground v.1.15,2013-06-10 15:24:00,
2013-06-10 11:29:00,86.5,76.8,29.97,SE,131,0.0,10.0,73,0.00,,,0.00,Wunderground v.1.15,2013-06-10 15:29:00,
2013-06-10 11:34:00,87.0,77.3,29.97,East,99,3.0,8.0,73,0.00,,,0.00,Wunderground v.1.15,2013-06-10 15:34:00,
2013-06-10 11:39:00,87.2,77.5,29.97,SE,124,1.0,8.0,73,0.00,,,0.00,Wunderground v.1.15,2013-06-10 15:39:00,
2013-06-10 11:44:00,87.4,77.3,29.97,SSE,158,0.0,7.0,72,0.00,,,0.00,Wunderground v.1.15,2013-06-10 15:44:00,
2013-06-10 11:49:00,87.8,77.6,29.97,SE,137,6.0,10.0,72,0.00,,,0.00,Wunderground v.1.15,2013-06-10 15:49:00,
2013-06-10 11:54:00,88.0,77.4,29.97,SE,128,0.0,8.0,71,0.00,,,0.00,Wunderground v.1.15,2013-06-10 15:54:00,
2013-06-10 11:59:00,88.2,77.2,29.97,East,97,0.0,8.0,70,0.00,,,0.00,Wunderground v.1.15,2013-06-10 15:59:00,
2013-06-10 12:04:00,88.4,76.5,29.97,South,181,2.0,11.0,68,0.00,,,0.00,Wunderground v.1.15,2013-06-10 16:04:00,
2013-06-10 12:09:00,88.6,76.7,29.97,NE,56,10.0,11.0,68,0.00,,,0.00,Wunderground v.1.15,2013-06-10 16:09:00,
2013-06-10 12:14:00,89.0,76.6,29.97,SSE,167,0.0,9.0,67,0.00,,,0.00,Wunderground v.1.15,2013-06-10 16:14:00,
2013-06-10 12:19:00,89.5,76.6,29.97,ESE,110,0.0,2.0,66,0.00,,,0.00,Wunderground v.1.15,2013-06-10 16:19:00,
2013-06-10 12:24:00,89.9,76.6,29.97,SSE,154,0.0,7.0,65,0.00,,,0.00,Wunderground v.1.15,2013-06-10 16:24:00,
2013-06-10 12:29:00,90.1,76.3,29.97,SSE,161,0.0,7.0,64,0.00,,,0.00,Wunderground v.1.15,2013-06-10 16:29:00,
2013-06-10 12:34:00,90.5,77.1,29.97,SSE,155,0.0,6.0,65,0.00,,,0.00,Wunderground v.1.15,2013-06-10 16:34:00,
2013-06-10 12:39:00,90.7,76.8,29.97,SW,220,1.0,1.0,64,0.00,,,0.00,Wunderground v.1.15,2013-06-10 16:39:00,
2013-06-10 12:44:00,90.3,76.5,29.97,South,186,0.0,8.0,64,0.00,,,0.00,Wunderground v.1.15,2013-06-10 16:44:00,
2013-06-10 12:50:00,89.9,76.1,29.97,West,261,0.0,1.0,64,0.00,,,0.00,Wunderground v.1.15,2013-06-10 16:50:00,
2013-06-10 12:55:00,89.0,75.7,29.97,NW,320,0.0,6.0,65,0.00,,,0.00,Wunderground v.1.15,2013-06-10 16:55:00,
2013-06-10 13:00:00,88.2,74.9,29.97,WNW,294,0.0,1.0,65,0.00,,,0.00,Wunderground v.1.15,2013-06-10 17:00:00,
2013-06-10 13:05:00,87.8,75.0,29.97,South,191,0.0,4.0,66,0.00,,,0.00,Wunderground v.1.15,2013-06-10 17:05:00,
2013-06-10 13:10:00,87.4,75.1,29.97,West,265,0.0,1.0,67,0.00,,,0.00,Wunderground v.1.15,2013-06-10 17:10:00,
2013-06-10 13:15:00,87.6,75.7,29.97,WSW,251,4.0,7.0,68,0.00,,,0.00,Wunderground v.1.15,2013-06-10 17:15:00,
2013-06-10 13:20:00,88.2,76.3,29.97,SSW,202,0.0,1.0,68,0.00,,,0.00,Wunderground v.1.15,2013-06-10 17:20:00,
2013-06-10 13:25:00,89.0,77.1,29.97,SSE,147,4.0,7.0,68,0.00,,,0.00,Wunderground v.1.15,2013-06-10 17:25:00,
2013-06-10 13:30:00,89.5,76.6,29.96,WSW,248,0.0,2.0,66,0.00,,,0.00,Wunderground v.1.15,2013-06-10 17:30:00,
2013-06-10 13:35:00,89.9,77.0,29.96,SW,232,0.0,7.0,66,0.00,,,0.00,Wunderground v.1.15,2013-06-10 17:35:00,
2013-06-10 13:40:00,89.7,75.4,29.96,WSW,248,0.0,2.0,63,0.00,,,0.00,Wunderground v.1.15,2013-06-10 17:40:00,
2013-06-10 13:45:00,88.8,74.1,29.96,SSW,202,0.0,6.0,62,0.00,,,0.00,Wunderground v.1.15,2013-06-10 17:45:00,
2013-06-10 13:50:00,88.4,74.2,29.96,South,184,0.0,1.0,63,0.00,,,0.00,Wunderground v.1.15,2013-06-10 17:50:00,
2013-06-10 13:55:00,88.2,74.0,29.96,West,275,6.0,6.0,63,0.00,,,0.00,Wunderground v.1.15,2013-06-10 17:55:00,
2013-06-10 14:00:00,88.4,74.2,29.96,NNE,18,0.0,1.0,63,0.00,,,0.00,Wunderground v.1.15,2013-06-10 18:00:00,
2013-06-10 14:05:00,88.8,74.6,29.96,West,281,0.0,2.0,63,0.00,,,0.00,Wunderground v.1.15,2013-06-10 18:05:00,
2013-06-10 14:10:00,89.0,75.2,29.96,WNW,285,0.0,2.0,64,0.00,,,0.00,Wunderground v.1.15,2013-06-10 18:10:00,
2013-06-10 14:15:00,89.7,75.9,29.95,WSW,241,0.0,10.0,64,0.00,,,0.00,Wunderground v.1.15,2013-06-10 18:15:00,
2013-06-10 14:20:00,90.1,76.3,29.95,SW,216,0.0,2.0,64,0.00,,,0.00,Wunderground v.1.15,2013-06-10 18:20:00,
2013-06-10 14:25:00,90.3,76.5,29.95,South,188,3.0,8.0,64,0.00,,,0.00,Wunderground v.1.15,2013-06-10 18:25:00,
2013-06-10 14:30:00,90.1,76.3,29.95,SW,233,0.0,2.0,64,0.00,,,0.00,Wunderground v.1.15,2013-06-10 18:30:00,
2013-06-10 14:35:00,90.3,76.5,29.95,WSW,244,1.0,4.0,64,0.00,,,0.00,Wunderground v.1.15,2013-06-10 18:35:00,
2013-06-10 14:40:00,90.5,76.7,29.95,WNW,299,7.0,7.0,64,0.00,,,0.00,Wunderground v.1.15,2013-06-10 18:40:00,
2013-06-10 14:45:00,90.7,76.4,29.95,West,268,6.0,7.0,63,0.00,,,0.00,Wunderground v.1.15,2013-06-10 18:45:00,
2013-06-10 14:50:00,91.0,76.7,29.95,WSW,237,3.0,3.0,63,0.00,,,0.00,Wunderground v.1.15,2013-06-10 18:50:00,
2013-06-10 14:55:00,90.7,75.9,29.95,West,265,6.0,9.0,62,0.00,,,0.00,Wunderground v.1.15,2013-06-10 18:55:00,
2013-06-10 15:00:00,90.7,75.4,29.94,SSW,195,1.0,3.0,61,0.00,,,0.00,Wunderground v.1.15,2013-06-10 19:00:00,
2013-06-10 15:05:00,90.5,75.2,29.94,WNW,294,7.0,7.0,61,0.00,,,0.00,Wunderground v.1.15,2013-06-10 19:05:00,
2013-06-10 15:10:00,90.3,75.0,29.94,SSW,198,1.0,3.0,61,0.00,,,0.00,Wunderground v.1.15,2013-06-10 19:10:00,
2013-06-10 15:15:00,90.1,74.8,29.93,SSW,199,0.0,9.0,61,0.00,,,0.00,Wunderground v.1.15,2013-06-10 19:15:00,
2013-06-10 15:20:00,90.3,75.0,29.93,WNW,288,3.0,6.0,61,0.00,,,0.00,Wunderground v.1.15,2013-06-10 19:20:00,
2013-06-10 15:25:00,90.3,74.5,29.93,West,281,3.0,9.0,60,0.00,,,0.00,Wunderground v.1.15,2013-06-10 19:25:00,
2013-06-10 15:30:00,90.3,74.5,29.93,SW,233,2.0,5.0,60,0.00,,,0.00,Wunderground v.1.15,2013-06-10 19:30:00,
2013-06-10 15:35:00,90.1,74.3,29.93,SW,219,0.0,9.0,60,0.00,,,0.00,Wunderground v.1.15,2013-06-10 19:35:00,
2013-06-10 15:40:00,90.1,74.3,29.93,SSW,206,0.0,3.0,60,0.00,,,0.00,Wunderground v.1.15,2013-06-10 19:40:00,
2013-06-10 15:45:00,90.1,74.3,29.93,NW,319,0.0,8.0,60,0.00,,,0.00,Wunderground v.1.15,2013-06-10 19:45:00,
2013-06-10 15:50:00,90.1,74.3,29.93,WSW,256,0.0,2.0,60,0.00,,,0.00,Wunderground v.1.15,2013-06-10 19:50:00,
2013-06-10 15:55:00,90.1,74.8,29.93,West,270,0.0,7.0,61,0.00,,,0.00,Wunderground v.1.15,2013-06-10 19:55:00,
2013-06-10 16:00:00,90.3,74.5,29.93,SSW,206,3.0,5.0,60,0.00,,,0.00,Wunderground v.1.15,2013-06-10 20:00:00,
2013-06-10 16:05:00,90.3,75.0,29.93,WSW,243,0.0,10.0,61,0.00,,,0.00,Wunderground v.1.15,2013-06-10 20:05:00,
2013-06-10 16:10:00,90.1,74.8,29.93,West,260,5.0,6.0,61,0.00,,,0.00,Wunderground v.1.15,2013-06-10 20:10:00,
2013-06-10 16:15:00,89.9,74.6,29.92,WSW,251,2.0,13.0,61,0.00,,,0.00,Wunderground v.1.15,2013-06-10 20:15:00,
2013-06-10 16:20:00,89.7,74.0,29.92,WSW,254,6.0,6.0,60,0.00,,,0.00,Wunderground v.1.15,2013-06-10 20:20:00,
2013-06-10 16:25:00,89.3,74.1,29.92,WNW,296,0.0,8.0,61,0.00,,,0.00,Wunderground v.1.15,2013-06-10 20:25:00,
2013-06-10 16:30:00,89.0,73.8,29.92,South,185,0.0,2.0,61,0.00,,,0.00,Wunderground v.1.15,2013-06-10 20:30:00,
2013-06-10 16:35:00,88.8,73.6,29.92,NW,322,0.0,8.0,61,0.00,,,0.00,Wunderground v.1.15,2013-06-10 20:35:00,
2013-06-10 16:40:00,88.4,73.2,29.92,WSW,247,0.0,5.0,61,0.00,,,0.00,Wunderground v.1.15,2013-06-10 20:40:00,
2013-06-10 16:45:00,88.2,73.5,29.92,SSW,206,0.0,6.0,62,0.00,,,0.00,Wunderground v.1.15,2013-06-10 20:45:00,
2013-06-10 16:50:00,88.2,73.5,29.92,SW,224,3.0,3.0,62,0.00,,,0.00,Wunderground v.1.15,2013-06-10 20:50:00,
2013-06-10 16:55:00,88.2,74.0,29.92,SW,220,3.0,7.0,63,0.00,,,0.00,Wunderground v.1.15,2013-06-10 20:55:00,
2013-06-10 17:00:00,88.2,73.5,29.91,West,265,0.0,1.0,62,0.00,,,0.00,Wunderground v.1.15,2013-06-10 21:00:00,
2013-06-10 17:05:00,88.4,73.7,29.91,SW,229,0.0,1.0,62,0.00,,,0.00,Wunderground v.1.15,2013-06-10 21:05:00,
2013-06-10 17:10:00,88.6,74.4,29.91,NNW,335,0.0,3.0,63,0.00,,,0.00,Wunderground v.1.15,2013-06-10 21:10:00,
2013-06-10 17:15:00,88.6,73.9,29.91,West,281,6.0,7.0,62,0.00,,,0.00,Wunderground v.1.15,2013-06-10 21:15:00,
2013-06-10 17:20:00,88.6,74.4,29.91,West,280,0.0,1.0,63,0.00,,,0.00,Wunderground v.1.15,2013-06-10 21:20:00,
2013-06-10 17:25:00,88.4,74.2,29.91,WNW,287,1.0,7.0,63,0.00,,,0.00,Wunderground v.1.15,2013-06-10 21:25:00,
2013-06-10 17:30:00,88.2,74.0,29.92,WNW,296,0.0,7.0,63,0.00,,,0.00,Wunderground v.1.15,2013-06-10 21:30:00,
2013-06-10 17:36:00,88.0,73.8,29.92,WNW,292,2.0,7.0,63,0.00,,,0.00,Wunderground v.1.15,2013-06-10 21:36:00,
2013-06-10 17:41:00,88.0,74.3,29.92,North,359,2.0,7.0,64,0.00,,,0.00,Wunderground v.1.15,2013-06-10 21:41:00,
2013-06-10 17:46:00,87.8,74.1,29.90,North,356,0.0,7.0,64,0.00,,,0.00,Wunderground v.1.15,2013-06-10 21:46:00,
2013-06-10 17:51:00,87.6,73.9,29.90,SW,227,0.0,2.0,64,0.00,,,0.00,Wunderground v.1.15,2013-06-10 21:51:00,
2013-06-10 17:56:00,87.4,73.7,29.90,NW,319,0.0,6.0,64,0.00,,,0.00,Wunderground v.1.15,2013-06-10 21:56:00,
2013-06-10 18:01:00,87.0,73.3,29.91,NW,305,0.0,6.0,64,0.00,,,0.00,Wunderground v.1.15,2013-06-10 22:01:00,
2013-06-10 18:06:00,86.7,73.1,29.91,West,274,0.0,8.0,64,0.00,,,0.00,Wunderground v.1.15,2013-06-10 22:06:00,
2013-06-10 18:11:00,86.5,73.3,29.91,WSW,251,5.0,6.0,65,0.00,,,0.00,Wunderground v.1.15,2013-06-10 22:11:00,
2013-06-10 18:16:00,86.3,73.6,29.92,West,272,6.0,8.0,66,0.00,,,0.00,Wunderground v.1.15,2013-06-10 22:16:00,
2013-06-10 18:21:00,86.3,73.6,29.92,SW,230,4.0,6.0,66,0.00,,,0.00,Wunderground v.1.15,2013-06-10 22:21:00,
2013-06-10 18:26:00,86.1,73.4,29.92,West,277,2.0,6.0,66,0.00,,,0.00,Wunderground v.1.15,2013-06-10 22:26:00,
2013-06-10 18:31:00,85.9,73.7,29.92,NW,311,3.0,5.0,67,0.00,,,0.00,Wunderground v.1.15,2013-06-10 22:31:00,
2013-06-10 18:36:00,85.9,73.2,29.92,NNW,329,0.0,8.0,66,0.00,,,0.00,Wunderground v.1.15,2013-06-10 22:36:00,
2013-06-10 18:41:00,85.7,73.0,29.92,NNW,333,0.0,7.0,66,0.00,,,0.00,Wunderground v.1.15,2013-06-10 22:41:00,
2013-06-10 18:47:00,85.7,73.5,29.92,NW,311,2.0,11.0,67,0.00,,,0.00,Wunderground v.1.15,2013-06-10 22:47:00,
2013-06-10 18:52:00,85.7,73.5,29.92,NNW,328,5.0,6.0,67,0.00,,,0.00,Wunderground v.1.15,2013-06-10 22:52:00,
2013-06-10 18:57:00,85.5,73.7,29.92,NNE,14,0.0,6.0,68,0.00,,,0.00,Wunderground v.1.15,2013-06-10 22:57:00,
2013-06-10 19:02:00,85.5,73.3,29.92,NNE,27,0.0,5.0,67,0.00,,,0.00,Wunderground v.1.15,2013-06-10 23:02:00,
2013-06-10 19:07:00,85.3,73.1,29.92,SW,224,0.0,7.0,67,0.00,,,0.00,Wunderground v.1.15,2013-06-10 23:07:00,
2013-06-10 19:12:00,85.3,73.1,29.92,West,281,0.0,6.0,67,0.00,,,0.00,Wunderground v.1.15,2013-06-10 23:12:00,
2013-06-10 19:17:00,85.1,73.3,29.93,NW,312,0.0,6.0,68,0.00,,,0.00,Wunderground v.1.15,2013-06-10 23:17:00,
2013-06-10 19:22:00,84.9,73.2,29.93,NW,311,0.0,1.0,68,0.00,,,0.00,Wunderground v.1.15,2013-06-10 23:22:00,
2013-06-10 19:27:00,84.9,73.2,29.93,West,277,4.0,5.0,68,0.00,,,0.00,Wunderground v.1.15,2013-06-10 23:27:00,
2013-06-10 19:32:00,84.7,73.0,29.93,WNW,296,0.0,0.0,68,0.00,,,0.00,Wunderground v.1.15,2013-06-10 23:32:00,
2013-06-10 19:37:00,84.5,73.2,29.93,NE,35,0.0,0.0,69,0.00,,,0.00,Wunderground v.1.15,2013-06-10 23:37:00,
2013-06-10 19:42:00,84.3,73.0,29.93,NNE,18,0.0,0.0,69,0.00,,,0.00,Wunderground v.1.15,2013-06-10 23:42:00,
2013-06-10 19:47:00,84.3,73.0,29.93,North,0,0.0,2.0,69,0.00,,,0.00,Wunderground v.1.15,2013-06-10 23:47:00,
2013-06-10 19:52:00,84.1,72.8,29.93,NNW,328,0.0,0.0,69,0.00,,,0.00,Wunderground v.1.15,2013-06-10 23:52:00,
2013-06-10 19:57:00,84.1,72.8,29.93,North,1,0.0,6.0,69,0.00,,,0.00,Wunderground v.1.15,2013-06-10 23:57:00,
2013-06-10 20:02:00,84.1,73.3,29.94,NNW,335,0.0,2.0,70,0.00,,,0.00,Wunderground v.1.15,2013-06-11 00:02:00,
2013-06-10 20:07:00,84.0,73.2,29.94,NNE,17,0.0,3.0,70,0.00,,,0.00,Wunderground v.1.15,2013-06-11 00:07:00,
2013-06-10 20:12:00,84.0,73.2,29.94,North,10,0.0,4.0,70,0.00,,,0.00,Wunderground v.1.15,2013-06-11 00:12:00,
2013-06-10 20:17:00,84.0,73.2,29.94,North,8,0.0,4.0,70,0.00,,,0.00,Wunderground v.1.15,2013-06-11 00:17:00,
2013-06-10 20:22:00,83.8,73.0,29.94,North,8,0.0,0.0,70,0.00,,,0.00,Wunderground v.1.15,2013-06-11 00:22:00,
2013-06-10 20:27:00,83.8,73.0,29.94,North,8,0.0,0.0,70,0.00,,,0.00,Wunderground v.1.15,2013-06-11 00:27:00,
2013-06-10 20:32:00,83.8,73.0,29.94,North,8,0.0,0.0,70,0.00,,,0.00,Wunderground v.1.15,2013-06-11 00:32:00,
2013-06-10 20:37:00,83.8,73.0,29.94,North,8,0.0,0.0,70,0.00,,,0.00,Wunderground v.1.15,2013-06-11 00:37:00,
2013-06-10 20:42:00,83.6,73.2,29.94,North,8,0.0,0.0,71,0.00,,,0.00,Wunderground v.1.15,2013-06-11 00:42:00,
2013-06-10 20:47:00,83.6,73.2,29.93,North,0,0.0,0.0,71,0.00,,,0.00,Wunderground v.1.15,2013-06-11 00:47:00,
2013-06-10 20:52:00,83.4,73.0,29.93,North,0,0.0,0.0,71,0.00,,,0.00,Wunderground v.1.15,2013-06-11 00:52:00,
2013-06-10 20:57:00,83.2,72.8,29.93,North,0,0.0,0.0,71,0.00,,,0.00,Wunderground v.1.15,2013-06-11 00:57:00,
2013-06-10 21:02:00,83.0,72.6,29.93,North,0,0.0,0.0,71,0.00,,,0.00,Wunderground v.1.15,2013-06-11 01:02:00,
2013-06-10 21:07:00,82.8,72.4,29.93,North,0,0.0,0.0,71,0.00,,,0.00,Wunderground v.1.15,2013-06-11 01:07:00,
2013-06-10 21:12:00,82.6,72.7,29.93,North,0,0.0,0.0,72,0.00,,,0.00,Wunderground v.1.15,2013-06-11 01:12:00,
2013-06-10 21:17:00,82.6,72.7,29.93,North,0,0.0,1.0,72,0.00,,,0.00,Wunderground v.1.15,2013-06-11 01:17:00,
2013-06-10 21:22:00,82.4,72.5,29.93,North,0,0.0,0.0,72,0.00,,,0.00,Wunderground v.1.15,2013-06-11 01:22:00,
2013-06-10 21:27:00,82.2,72.3,29.93,North,0,0.0,0.0,72,0.00,,,0.00,Wunderground v.1.15,2013-06-11 01:27:00,
2013-06-10 21:32:00,82.0,72.5,29.93,North,0,0.0,0.0,73,0.00,,,0.00,Wunderground v.1.15,2013-06-11 01:32:00,
2013-06-10 21:37:00,81.6,72.1,29.93,North,0,0.0,0.0,73,0.00,,,0.00,Wunderground v.1.15,2013-06-11 01:37:00,
2013-06-10 21:42:00,81.4,71.9,29.93,North,0,0.0,0.0,73,0.00,,,0.00,Wunderground v.1.15,2013-06-11 01:42:00,
2013-06-10 21:48:00,81.2,72.1,29.94,North,0,0.0,0.0,74,0.00,,,0.00,Wunderground v.1.15,2013-06-11 01:48:00,
2013-06-10 21:53:00,81.2,72.1,29.94,North,0,0.0,0.0,74,0.00,,,0.00,Wunderground v.1.15,2013-06-11 01:53:00,
2013-06-10 21:58:00,81.1,72.0,29.94,North,0,0.0,0.0,74,0.00,,,0.00,Wunderground v.1.15,2013-06-11 01:58:00,
2013-06-10 22:03:00,80.9,71.8,29.94,North,0,0.0,0.0,74,0.00,,,0.00,Wunderground v.1.15,2013-06-11 02:03:00,
2013-06-10 22:08:00,80.9,71.8,29.94,North,0,0.0,0.0,74,0.00,,,0.00,Wunderground v.1.15,2013-06-11 02:08:00,
2013-06-10 22:13:00,80.7,72.0,29.94,North,0,0.0,0.0,75,0.00,,,0.00,Wunderground v.1.15,2013-06-11 02:13:00,
2013-06-10 22:18:00,80.7,72.0,29.94,North,0,0.0,0.0,75,0.00,,,0.00,Wunderground v.1.15,2013-06-11 02:18:00,
2013-06-10 22:23:00,80.5,71.8,29.94,North,0,0.0,0.0,75,0.00,,,0.00,Wunderground v.1.15,2013-06-11 02:23:00,
2013-06-10 22:28:00,80.3,71.6,29.94,North,0,0.0,0.0,75,0.00,,,0.00,Wunderground v.1.15,2013-06-11 02:28:00,
2013-06-10 22:33:00,80.3,71.6,29.95,North,0,0.0,0.0,75,0.00,,,0.00,Wunderground v.1.15,2013-06-11 02:33:00,
2013-06-10 22:38:00,80.1,71.8,29.95,North,0,0.0,0.0,76,0.00,,,0.00,Wunderground v.1.15,2013-06-11 02:38:00,
2013-06-10 22:43:00,80.1,71.8,29.95,North,0,0.0,0.0,76,0.00,,,0.00,Wunderground v.1.15,2013-06-11 02:43:00,
2013-06-10 22:48:00,79.9,71.7,29.95,North,0,0.0,0.0,76,0.00,,,0.00,Wunderground v.1.15,2013-06-11 02:48:00,
2013-06-10 22:53:00,79.9,71.7,29.95,North,0,0.0,0.0,76,0.00,,,0.00,Wunderground v.1.15,2013-06-11 02:53:00,
2013-06-10 22:58:00,79.8,71.6,29.95,North,0,0.0,0.0,76,0.00,,,0.00,Wunderground v.1.15,2013-06-11 02:58:00,
2013-06-10 23:03:00,79.8,71.6,29.96,North,0,0.0,0.0,76,0.00,,,0.00,Wunderground v.1.15,2013-06-11 03:03:00,
2013-06-10 23:08:00,79.6,71.8,29.96,North,0,0.0,0.0,77,0.00,,,0.00,Wunderground v.1.15,2013-06-11 03:08:00,
2013-06-10 23:13:00,79.6,71.8,29.96,North,0,0.0,0.0,77,0.00,,,0.00,Wunderground v.1.15,2013-06-11 03:13:00,
2013-06-10 23:18:00,79.6,71.8,29.96,North,0,0.0,0.0,77,0.00,,,0.00,Wunderground v.1.15,2013-06-11 03:18:00,
2013-06-10 23:23:00,79.4,71.6,29.96,North,0,0.0,0.0,77,0.00,,,0.00,Wunderground v.1.15,2013-06-11 03:23:00,
2013-06-10 23:28:00,79.4,71.6,29.96,North,0,0.0,0.0,77,0.00,,,0.00,Wunderground v.1.15,2013-06-11 03:28:00,
2013-06-10 23:33:00,79.2,71.4,29.96,North,0,0.0,0.0,77,0.00,,,0.00,Wunderground v.1.15,2013-06-11 03:33:00,
2013-06-10 23:38:00,79.0,71.6,29.96,North,0,0.0,0.0,78,0.00,,,0.00,Wunderground v.1.15,2013-06-11 03:38:00,
2013-06-10 23:43:00,78.8,71.0,29.96,NNW,339,0.0,0.0,77,0.00,,,0.00,Wunderground v.1.15,2013-06-11 03:43:00,
2013-06-10 23:48:00,78.6,70.8,29.96,NNW,335,0.0,0.0,77,0.00,,,0.00,Wunderground v.1.15,2013-06-11 03:48:00,
2013-06-10 23:53:00,78.5,70.7,29.96,NNW,347,0.0,0.0,77,0.00,,,0.00,Wunderground v.1.15,2013-06-11 03:53:00,
2013-06-10 23:58:00,78.3,70.5,29.96,North,7,0.0,0.0,77,0.00,,,0.00,Wunderground v.1.15,2013-06-11 03:58:00,